createdAt,value
2018-04-29T00:01:18.076Z,76.40
2018-04-29T00:03:47.216Z,76.70
2018-04-29T00:06:15.715Z,76.90
2018-04-29T00:08:44.659Z,77.10
2018-04-29T00:11:14.175Z,78.80
2018-04-29T00:13:43.265Z,78.10
2018-04-29T00:16:12.935Z,77.80
2018-04-29T00:18:41.126Z,77.70
2018-04-29T00:21:09.556Z,78.10
2018-04-29T00:23:38.589Z,78.30
2018-04-29T00:26:06.786Z,78.40
2018-04-29T00:28:37.112Z,78.80
2018-04-29T00:31:05.920Z,78.70
2018-04-29T00:33:35.423Z,78.90
2018-04-29T00:36:04.903Z,78.90
2018-04-29T00:38:33.620Z,78.70
2018-04-29T00:41:02.643Z,78.90
2018-04-29T00:43:31.300Z,79.20
2018-04-29T00:45:59.887Z,79.40
2018-04-29T00:48:29.264Z,79.50
2018-04-29T00:50:57.868Z,79.50
2018-04-29T00:53:32.099Z,79.30
2018-04-29T00:56:00.636Z,79.30
2018-04-29T00:58:28.892Z,79.60
2018-04-29T01:00:57.504Z,79.90
2018-04-29T01:03:25.703Z,79.90
2018-04-29T01:05:53.942Z,80.10
2018-04-29T01:08:23.793Z,80.10
2018-04-29T01:10:53.069Z,80.80
2018-04-29T01:13:21.268Z,80.70
2018-04-29T01:15:50.431Z,81.60
2018-04-29T01:18:18.739Z,81.50
2018-04-29T01:20:48.121Z,82.00
2018-04-29T01:23:16.357Z,81.90
2018-04-29T01:25:44.920Z,82.70
2018-04-29T01:28:13.124Z,84.00
2018-04-29T01:30:41.376Z,84.80
2018-04-29T01:33:10.660Z,85.00
2018-04-29T01:35:42.520Z,85.60
2018-04-29T01:38:11.504Z,87.80
2018-04-29T01:40:40.359Z,87.70
2018-04-29T01:43:08.562Z,88.70
2018-04-29T01:45:36.763Z,89.70
2018-04-29T01:48:05.657Z,90.20
2018-04-29T01:50:36.929Z,90.50
2018-04-29T01:53:05.376Z,90.80
2018-04-29T01:55:40.656Z,90.70
2018-04-29T01:58:09.420Z,90.70
2018-04-29T02:00:41.111Z,90.70
2018-04-29T02:03:10.464Z,91.10
2018-04-29T02:05:38.647Z,91.10
2018-04-29T02:08:07.723Z,91.70
2018-04-29T02:10:36.147Z,91.70
2018-04-29T02:13:05.757Z,91.70
2018-04-29T02:15:34.424Z,91.70
2018-04-29T02:18:03.387Z,91.90
2018-04-29T02:20:32.116Z,91.90
2018-04-29T02:23:01.180Z,92.00
2018-04-29T02:25:30.528Z,92.20
2018-04-29T02:27:58.733Z,92.20
2018-04-29T02:30:27.569Z,92.40
2018-04-29T02:32:57.325Z,92.40
2018-04-29T02:35:25.519Z,92.40
2018-04-29T02:37:53.718Z,92.30
2018-04-29T02:40:22.715Z,92.30
2018-04-29T02:42:52.230Z,92.80
2018-04-29T02:45:21.183Z,92.60
2018-04-29T02:47:50.615Z,92.60
2018-04-29T02:50:20.532Z,92.90
2018-04-29T02:52:50.452Z,93.10
2018-04-29T02:55:20.148Z,93.10
2018-04-29T02:57:48.976Z,93.10
2018-04-29T03:00:17.170Z,93.10
2018-04-29T03:02:45.651Z,93.30
2018-04-29T03:05:13.872Z,93.20
2018-04-29T03:07:42.580Z,93.30
2018-04-29T03:10:12.064Z,93.70
2018-04-29T03:12:40.972Z,93.70
2018-04-29T03:15:10.881Z,94.10
2018-04-29T03:17:40.364Z,94.10
2018-04-29T03:20:08.559Z,94.10
2018-04-29T03:22:37.520Z,94.20
2018-04-29T03:25:13.229Z,94.30
2018-04-29T03:27:41.429Z,94.30
2018-04-29T03:30:10.152Z,94.30
2018-04-29T03:32:46.639Z,94.10
2018-04-29T03:35:16.016Z,94.40
2018-04-29T03:37:44.227Z,94.40
2018-04-29T03:40:13.520Z,94.70
2018-04-29T03:42:42.690Z,94.70
2018-04-29T03:45:11.211Z,94.70
2018-04-29T03:47:39.419Z,94.80
2018-04-29T03:50:07.624Z,94.90
2018-04-29T03:52:36.136Z,95.10
2018-04-29T03:55:05.636Z,95.30
2018-04-29T03:57:45.668Z,95.30
2018-04-29T04:00:25.531Z,95.20
2018-04-29T04:03:05.880Z,95.40
2018-04-29T04:05:34.327Z,95.50
2018-04-29T04:08:03.424Z,95.50
2018-04-29T04:10:32.595Z,95.50
2018-04-29T04:13:00.797Z,95.60
2018-04-29T04:15:29.370Z,95.70
2018-04-29T04:17:57.973Z,95.70
2018-04-29T04:20:26.904Z,95.70
2018-04-29T04:22:57.959Z,95.90
2018-04-29T04:25:27.999Z,96.10
2018-04-29T04:27:56.187Z,96.10
2018-04-29T04:30:25.863Z,96.20
2018-04-29T04:32:55.957Z,96.20
2018-04-29T04:35:24.156Z,96.20
2018-04-29T04:37:53.641Z,96.10
2018-04-29T04:40:22.304Z,96.10
2018-04-29T04:42:50.620Z,96.20
2018-04-29T04:45:18.905Z,96.30
2018-04-29T04:47:49.024Z,96.50
2018-04-29T04:50:18.018Z,96.60
2018-04-29T04:52:47.037Z,96.60
2018-04-29T04:55:15.675Z,96.50
2018-04-29T04:57:43.867Z,96.60
2018-04-29T05:00:12.851Z,96.40
2018-04-29T05:02:41.566Z,96.40
2018-04-29T05:05:10.586Z,96.40
2018-04-29T05:07:39.049Z,96.40
2018-04-29T05:10:08.408Z,96.20
2018-04-29T05:12:37.363Z,96.20
2018-04-29T05:15:06.121Z,96.20
2018-04-29T05:17:35.940Z,96.10
2018-04-29T05:20:04.793Z,96.40
2018-04-29T05:22:34.544Z,96.00
2018-04-29T05:25:02.750Z,96.30
2018-04-29T05:27:31.432Z,96.20
2018-04-29T05:29:59.627Z,96.00
2018-04-29T05:32:28.365Z,96.10
2018-04-29T05:34:57.756Z,96.10
2018-04-29T05:37:26.727Z,95.30
2018-04-29T05:39:55.658Z,95.30
2018-04-29T05:42:24.623Z,94.80
2018-04-29T05:44:58.952Z,94.70
2018-04-29T05:47:27.448Z,94.30
2018-04-29T05:49:56.786Z,94.20
2018-04-29T05:52:25.119Z,94.10
2018-04-29T05:54:54.516Z,94.50
2018-04-29T05:57:23.107Z,94.30
2018-04-29T05:59:51.504Z,95.00
2018-04-29T06:02:20.083Z,94.60
2018-04-29T06:04:49.871Z,93.60
2018-04-29T06:07:20.532Z,93.60
2018-04-29T06:09:50.232Z,93.30
2018-04-29T06:12:18.432Z,93.20
2018-04-29T06:14:47.611Z,93.00
2018-04-29T06:17:17.092Z,93.50
2018-04-29T06:19:45.292Z,93.50
2018-04-29T06:22:14.378Z,92.70
2018-04-29T06:24:43.336Z,92.50
2018-04-29T06:27:12.705Z,92.10
2018-04-29T06:29:42.249Z,91.40
2018-04-29T06:32:11.823Z,91.30
2018-04-29T06:34:40.589Z,91.10
2018-04-29T06:37:09.553Z,90.60
2018-04-29T06:39:38.283Z,90.60
2018-04-29T06:42:07.248Z,90.20
2018-04-29T06:44:36.270Z,90.20
2018-04-29T06:47:05.487Z,89.80
2018-04-29T06:49:33.687Z,90.00
2018-04-29T06:52:02.228Z,89.60
2018-04-29T06:54:31.708Z,88.90
2018-04-29T06:56:59.907Z,88.90
2018-04-29T06:59:28.511Z,88.90
2018-04-29T07:01:56.731Z,88.30
2018-04-29T07:04:25.515Z,87.50
2018-04-29T07:06:55.364Z,85.90
2018-04-29T07:09:25.281Z,83.00
2018-04-29T07:11:55.039Z,84.10
2018-04-29T07:14:23.984Z,84.10
2018-04-29T07:16:52.772Z,83.10
2018-04-29T07:19:22.300Z,81.80
2018-04-29T07:21:51.207Z,82.40
2018-04-29T07:24:19.871Z,80.30
2018-04-29T07:26:48.521Z,83.00
2018-04-29T07:29:16.718Z,81.40
2018-04-29T07:31:46.047Z,80.20
2018-04-29T07:34:14.952Z,79.70
2018-04-29T07:36:44.040Z,78.80
2018-04-29T07:39:12.804Z,78.20
2018-04-29T07:41:41.883Z,79.00
2018-04-29T07:44:12.131Z,78.50
2018-04-29T07:46:40.694Z,78.10
2018-04-29T07:49:09.796Z,77.60
2018-04-29T07:51:39.726Z,77.30
2018-04-29T07:54:09.139Z,75.80
2018-04-29T07:56:37.957Z,75.60
2018-04-29T07:59:06.158Z,76.40
2018-04-29T08:01:35.089Z,76.30
2018-04-29T08:04:04.204Z,75.40
2018-04-29T08:06:32.779Z,74.80
2018-04-29T08:09:01.458Z,73.60
2018-04-29T08:11:31.323Z,74.10
2018-04-29T08:14:00.556Z,74.00
2018-04-29T08:16:30.164Z,71.80
2018-04-29T08:18:59.208Z,70.70
2018-04-29T08:21:28.137Z,71.40
2018-04-29T08:23:57.320Z,69.80
2018-04-29T08:26:25.716Z,69.50
2018-04-29T08:28:53.916Z,69.50
2018-04-29T08:31:23.472Z,69.00
2018-04-29T08:33:52.012Z,68.00
2018-04-29T08:36:20.345Z,66.80
2018-04-29T08:38:49.609Z,67.20
2018-04-29T08:41:19.151Z,66.10
2018-04-29T08:43:47.362Z,66.30
2018-04-29T08:46:16.332Z,63.50
2018-04-29T08:48:45.352Z,63.40
2018-04-29T08:51:15.294Z,62.30
2018-04-29T08:53:55.826Z,62.30
2018-04-29T08:56:24.792Z,64.30
2018-04-29T08:58:52.992Z,64.20
2018-04-29T09:01:23.060Z,61.60
2018-04-29T09:03:51.899Z,61.50
2018-04-29T09:06:20.770Z,61.00
2018-04-29T09:08:49.724Z,60.90
2018-04-29T09:11:18.055Z,59.90
2018-04-29T09:13:47.885Z,60.60
2018-04-29T09:16:17.870Z,60.00
2018-04-29T09:18:46.036Z,60.00
2018-04-29T09:21:14.232Z,60.50
2018-04-29T09:23:43.316Z,59.40
2018-04-29T09:26:11.555Z,57.80
2018-04-29T09:28:39.751Z,57.00
2018-04-29T09:31:08.077Z,57.50
2018-04-29T09:33:37.553Z,56.10
2018-04-29T09:36:13.634Z,56.20
2018-04-29T09:38:44.383Z,56.60
2018-04-29T09:41:13.664Z,58.20
2018-04-29T09:43:42.424Z,58.20
2018-04-29T09:46:10.645Z,57.60
2018-04-29T09:48:40.379Z,56.70
2018-04-29T09:51:09.524Z,56.60
2018-04-29T09:53:37.716Z,56.20
2018-04-29T09:56:06.249Z,55.50
2018-04-29T09:58:34.455Z,56.50
2018-04-29T10:01:02.844Z,57.40
2018-04-29T10:03:31.259Z,55.90
2018-04-29T10:05:59.559Z,57.70
2018-04-29T10:11:03.144Z,57.50
2018-04-29T10:13:32.879Z,58.20
2018-04-29T10:16:01.874Z,58.20
2018-04-29T10:18:30.071Z,58.30
2018-04-29T10:20:58.345Z,57.30
2018-04-29T10:23:28.016Z,57.70
2018-04-29T10:25:56.975Z,57.70
2018-04-29T10:28:25.271Z,57.20
2018-04-29T10:30:53.480Z,56.70
2018-04-29T10:33:22.148Z,57.30
2018-04-29T10:35:51.310Z,57.90
2018-04-29T10:40:53.958Z,57.90
2018-04-29T10:43:22.920Z,59.10
2018-04-29T10:45:51.145Z,59.00
2018-04-29T10:48:20.604Z,58.30
2018-04-29T10:50:49.911Z,58.30
2018-04-29T10:53:19.273Z,58.00
2018-04-29T10:55:47.899Z,57.90
2018-04-29T10:58:16.101Z,59.00
2018-04-29T11:00:45.157Z,59.10
2018-04-29T11:03:13.873Z,58.50
2018-04-29T11:05:42.876Z,58.10
2018-04-29T11:08:11.711Z,58.00
2018-04-29T11:10:41.016Z,58.10
2018-04-29T11:13:10.483Z,58.50
2018-04-29T11:15:38.944Z,56.10
2018-04-29T11:18:07.921Z,57.20
2018-04-29T11:20:38.023Z,56.40
2018-04-29T11:23:07.860Z,57.50
2018-04-29T11:25:36.838Z,56.90
2018-04-29T11:28:05.227Z,56.80
2018-04-29T11:30:33.431Z,56.80
2018-04-29T11:33:02.283Z,56.50
2018-04-29T11:35:30.961Z,56.00
2018-04-29T11:37:59.531Z,56.10
2018-04-29T11:40:29.075Z,55.90
2018-04-29T11:42:57.946Z,55.20
2018-04-29T11:45:26.135Z,55.00
2018-04-29T11:47:55.128Z,55.40
2018-04-29T11:50:23.575Z,55.40
2018-04-29T11:52:52.315Z,54.90
2018-04-29T11:55:21.618Z,54.50
2018-04-29T11:57:50.584Z,52.10
2018-04-29T12:00:20.000Z,52.10
2018-04-29T12:02:49.292Z,52.70
2018-04-29T12:05:17.668Z,52.60
2018-04-29T12:07:47.084Z,52.80
2018-04-29T12:10:16.947Z,50.10
2018-04-29T12:12:45.424Z,50.00
2018-04-29T12:15:14.459Z,51.40
2018-04-29T12:17:42.663Z,50.30
2018-04-29T12:20:11.631Z,50.30
2018-04-29T12:22:39.958Z,50.20
2018-04-29T12:25:08.899Z,50.00
2018-04-29T12:27:37.416Z,50.30
2018-04-29T12:30:05.795Z,48.20
2018-04-29T12:32:35.484Z,49.80
2018-04-29T12:35:04.320Z,49.80
2018-04-29T12:37:33.123Z,46.90
2018-04-29T12:40:01.764Z,47.70
2018-04-29T12:42:30.732Z,45.40
2018-04-29T12:44:59.001Z,45.30
2018-04-29T12:47:27.621Z,46.80
2018-04-29T12:49:56.596Z,46.70
2018-04-29T12:52:25.360Z,46.70
2018-04-29T12:54:54.495Z,48.80
2018-04-29T12:57:23.467Z,48.50
2018-04-29T12:59:52.436Z,48.50
2018-04-29T13:02:20.774Z,47.30
2018-04-29T13:04:49.817Z,50.30
2018-04-29T13:07:18.432Z,50.30
2018-04-29T13:09:47.577Z,48.60
2018-04-29T13:12:15.776Z,48.60
2018-04-29T13:14:44.066Z,45.60
2018-04-29T13:17:12.692Z,47.10
2018-04-29T13:19:42.692Z,47.10
2018-04-29T13:22:12.159Z,47.10
2018-04-29T13:24:42.251Z,44.30
2018-04-29T13:27:10.840Z,41.20
2018-04-29T13:29:40.835Z,40.80
2018-04-29T13:32:09.620Z,42.10
2018-04-29T13:34:39.325Z,39.90
2018-04-29T13:37:09.299Z,42.20
2018-04-29T13:39:37.915Z,42.20
2018-04-29T13:42:07.247Z,41.60
2018-04-29T13:44:36.122Z,41.60
2018-04-29T13:47:05.080Z,42.00
2018-04-29T13:49:33.498Z,42.00
2018-04-29T13:52:03.832Z,42.40
2018-04-29T13:54:33.448Z,42.40
2018-04-29T13:57:01.803Z,41.00
2018-04-29T13:59:30.844Z,40.80
2018-04-29T14:01:59.387Z,40.80
2018-04-29T14:04:28.348Z,42.30
2018-04-29T14:06:56.795Z,42.30
2018-04-29T14:09:26.256Z,41.60
2018-04-29T14:11:55.639Z,43.30
2018-04-29T14:14:31.568Z,43.30
2018-04-29T14:17:00.212Z,43.50
2018-04-29T14:19:29.183Z,40.70
2018-04-29T14:22:02.392Z,40.10
2018-04-29T14:24:31.112Z,41.10
2018-04-29T14:27:00.352Z,41.30
2018-04-29T14:29:28.587Z,41.60
2018-04-29T14:31:57.213Z,43.30
2018-04-29T14:34:26.539Z,43.80
2018-04-29T14:36:55.344Z,42.60
2018-04-29T14:39:24.099Z,41.60
2018-04-29T14:41:52.512Z,41.10
2018-04-29T14:44:21.940Z,43.30
2018-04-29T14:46:50.188Z,42.60
2018-04-29T14:49:19.385Z,42.50
2018-04-29T14:51:48.595Z,42.40
2018-04-29T14:54:17.885Z,40.50
2018-04-29T14:56:46.849Z,40.50
2018-04-29T14:59:15.063Z,40.40
2018-04-29T15:01:45.433Z,40.00
2018-04-29T15:04:13.602Z,40.00
2018-04-29T15:06:41.813Z,38.80
2018-04-29T15:09:17.411Z,37.90
2018-04-29T15:11:46.156Z,37.90
2018-04-29T15:14:14.455Z,38.80
2018-04-29T15:16:43.640Z,38.60
2018-04-29T15:19:13.127Z,38.20
2018-04-29T15:21:41.327Z,38.10
2018-04-29T15:24:10.976Z,34.60
2018-04-29T15:26:39.598Z,34.50
2018-04-29T15:29:08.280Z,34.90
2018-04-29T15:31:37.271Z,35.10
2018-04-29T15:34:06.032Z,35.50
2018-04-29T15:36:34.279Z,36.60
2018-04-29T15:39:04.181Z,34.60
2018-04-29T15:41:33.351Z,34.60
2018-04-29T15:44:01.532Z,34.40
2018-04-29T15:46:29.760Z,40.90
2018-04-29T15:48:58.412Z,40.90
2018-04-29T15:51:28.004Z,38.60
2018-04-29T15:53:56.206Z,38.50
2018-04-29T15:56:25.575Z,39.50
2018-04-29T15:58:53.784Z,39.50
2018-04-29T16:03:56.719Z,40.80
2018-04-29T16:06:24.922Z,40.30
2018-04-29T16:08:54.191Z,40.70
2018-04-29T16:11:23.076Z,40.40
2018-04-29T16:13:51.272Z,40.20
2018-04-29T16:16:27.807Z,41.10
2018-04-29T16:18:56.368Z,41.70
2018-04-29T16:21:25.247Z,40.80
2018-04-29T16:23:53.596Z,41.80
2018-04-29T16:26:22.224Z,42.90
2018-04-29T16:28:50.421Z,41.20
2018-04-29T16:31:19.376Z,40.90
2018-04-29T16:33:47.773Z,40.80
2018-04-29T16:36:15.974Z,40.70
2018-04-29T16:38:44.552Z,40.30
2018-04-29T16:41:13.515Z,40.80
2018-04-29T16:43:41.715Z,40.70
2018-04-29T16:46:11.016Z,40.80
2018-04-29T16:48:39.990Z,41.50
2018-04-29T16:51:08.649Z,41.50
2018-04-29T16:53:36.840Z,40.80
2018-04-29T16:56:05.968Z,40.00
2018-04-29T16:58:34.948Z,40.00
2018-04-29T17:01:03.148Z,39.90
2018-04-29T17:03:32.756Z,40.70
2018-04-29T17:06:02.163Z,40.70
2018-04-29T17:08:39.279Z,39.90
2018-04-29T17:11:07.898Z,39.80
2018-04-29T17:13:36.639Z,40.20
2018-04-29T17:16:05.271Z,40.80
2018-04-29T17:18:33.727Z,41.10
2018-04-29T17:21:02.252Z,41.70
2018-04-29T17:23:31.222Z,42.40
2018-04-29T17:25:59.612Z,42.30
2018-04-29T17:28:27.884Z,42.60
2018-04-29T17:30:56.091Z,42.80
2018-04-29T17:33:25.638Z,43.20
2018-04-29T17:35:54.039Z,43.20
2018-04-29T17:38:30.228Z,43.60
2018-04-29T17:40:59.557Z,44.60
2018-04-29T17:43:27.748Z,44.70
2018-04-29T17:45:55.965Z,44.10
2018-04-29T17:48:24.164Z,44.70
2018-04-29T17:50:53.559Z,45.50
2018-04-29T17:53:22.539Z,45.40
2018-04-29T17:55:50.911Z,45.40
2018-04-29T17:58:19.116Z,45.10
2018-04-29T18:00:47.315Z,45.10
2018-04-29T18:03:15.552Z,45.20
2018-04-29T18:05:50.053Z,45.60
2018-04-29T18:08:18.852Z,45.70
2018-04-29T18:10:47.747Z,46.00
2018-04-29T18:13:15.955Z,46.40
2018-04-29T18:15:44.919Z,46.00
2018-04-29T18:18:13.189Z,46.50
2018-04-29T18:20:41.397Z,46.30
2018-04-29T18:23:10.381Z,46.40
2018-04-29T18:25:40.404Z,47.10
2018-04-29T18:28:09.472Z,46.70
2018-04-29T18:30:38.127Z,46.70
2018-04-29T18:33:06.960Z,46.90
2018-04-29T18:35:35.160Z,47.00
2018-04-29T18:38:04.318Z,47.10
2018-04-29T18:40:32.908Z,47.10
2018-04-29T18:43:01.624Z,47.30
2018-04-29T18:45:31.021Z,48.10
2018-04-29T18:47:59.611Z,48.10
2018-04-29T18:50:28.684Z,48.80
2018-04-29T18:52:57.488Z,48.80
2018-04-29T18:55:27.071Z,49.00
2018-04-29T18:57:55.868Z,49.00
2018-04-29T19:00:24.787Z,49.60
2018-04-29T19:02:55.432Z,50.60
2018-04-29T19:05:23.623Z,50.50
2018-04-29T19:07:52.897Z,50.80
2018-04-29T19:10:22.303Z,51.10
2018-04-29T19:12:51.130Z,51.10
2018-04-29T19:15:19.883Z,51.10
2018-04-29T19:17:49.435Z,50.80
2018-04-29T19:20:17.671Z,50.80
2018-04-29T19:22:47.403Z,51.50
2018-04-29T19:25:16.433Z,51.40
2018-04-29T19:27:45.172Z,51.50
2018-04-29T19:30:13.364Z,51.90
2018-04-29T19:32:41.911Z,51.80
2018-04-29T19:35:12.624Z,51.50
2018-04-29T19:37:41.136Z,51.50
2018-04-29T19:40:10.441Z,52.50
2018-04-29T19:42:39.404Z,51.80
2018-04-29T19:45:07.678Z,51.80
2018-04-29T19:47:36.605Z,51.70
2018-04-29T19:50:05.721Z,51.80
2018-04-29T19:52:34.052Z,52.00
2018-04-29T19:55:02.705Z,52.30
2018-04-29T19:57:32.905Z,51.40
2018-04-29T20:00:01.070Z,51.30
2018-04-29T20:02:29.784Z,50.80
2018-04-29T20:04:57.987Z,50.80
2018-04-29T20:07:26.473Z,50.70
2018-04-29T20:09:54.973Z,50.40
2018-04-29T20:12:24.094Z,50.60
2018-04-29T20:14:53.054Z,49.90
2018-04-29T20:17:21.679Z,49.80
2018-04-29T20:19:50.120Z,49.60
2018-04-29T20:22:18.324Z,49.20
2018-04-29T20:24:46.521Z,49.80
2018-04-29T20:27:21.351Z,49.50
2018-04-29T20:29:49.557Z,49.40
2018-04-29T20:32:30.712Z,49.50
2018-04-29T20:34:58.930Z,49.60
2018-04-29T20:37:27.730Z,49.90
2018-04-29T20:39:56.739Z,50.00
2018-04-29T20:42:25.700Z,50.50
2018-04-29T20:44:54.282Z,50.50
2018-04-29T20:47:22.480Z,50.60
2018-04-29T20:49:50.776Z,50.90
2018-04-29T20:52:19.747Z,51.50
2018-04-29T20:54:48.423Z,51.50
2018-04-29T20:57:16.719Z,51.90
2018-04-29T20:59:46.951Z,52.40
2018-04-29T21:02:15.424Z,52.30
2018-04-29T21:04:43.619Z,52.70
2018-04-29T21:07:12.216Z,53.00
2018-04-29T21:09:40.948Z,53.20
2018-04-29T21:12:09.749Z,53.50
2018-04-29T21:14:37.947Z,53.60
2018-04-29T21:17:07.328Z,53.90
2018-04-29T21:19:36.203Z,53.90
2018-04-29T21:22:10.396Z,54.10
2018-04-29T21:24:38.597Z,54.40
2018-04-29T21:27:06.993Z,54.40
2018-04-29T21:29:35.192Z,54.60
2018-04-29T21:32:03.559Z,55.10
2018-04-29T21:34:31.928Z,55.40
2018-04-29T21:37:00.961Z,55.20
2018-04-29T21:39:29.497Z,55.20
2018-04-29T21:41:57.732Z,55.10
2018-04-29T21:44:32.808Z,56.30
2018-04-29T21:47:01.435Z,55.30
2018-04-29T21:49:30.685Z,55.60
2018-04-29T21:51:58.864Z,55.60
2018-04-29T21:54:33.822Z,55.70
2018-04-29T21:57:02.796Z,55.70
2018-04-29T21:59:31.788Z,55.70
2018-04-29T22:01:59.987Z,55.50
2018-04-29T22:04:28.356Z,55.90
2018-04-29T22:06:56.742Z,55.80
2018-04-29T22:09:25.940Z,55.80
2018-04-29T22:11:54.750Z,55.70
2018-04-29T22:14:22.958Z,55.80
2018-04-29T22:16:51.800Z,56.00
2018-04-29T22:19:21.302Z,56.20
2018-04-29T22:21:49.496Z,56.20
2018-04-29T22:24:18.060Z,56.80
2018-04-29T22:26:46.761Z,56.30
2018-04-29T22:29:16.054Z,56.90
2018-04-29T22:31:44.569Z,56.90
2018-04-29T22:34:14.247Z,56.60
2018-04-29T22:36:43.211Z,56.40
2018-04-29T22:39:11.877Z,56.30
2018-04-29T22:41:40.121Z,56.80
2018-04-29T22:44:09.205Z,56.50
2018-04-29T22:46:38.313Z,56.90
2018-04-29T22:49:06.518Z,56.80
2018-04-29T22:51:34.844Z,56.80
2018-04-29T22:54:08.799Z,56.90
2018-04-29T22:56:37.242Z,57.20
2018-04-29T22:59:06.368Z,57.30
2018-04-29T23:01:34.568Z,57.00
2018-04-29T23:04:03.557Z,57.10
2018-04-29T23:06:32.492Z,57.50
2018-04-29T23:09:01.216Z,57.30
2018-04-29T23:11:30.716Z,57.00
2018-04-29T23:13:59.705Z,57.50
2018-04-29T23:16:28.065Z,58.30
2018-04-29T23:18:57.092Z,57.30
2018-04-29T23:21:25.880Z,57.30
2018-04-29T23:23:54.452Z,57.20
2018-04-29T23:26:22.787Z,57.10
2018-04-29T23:28:50.992Z,57.10
2018-04-29T23:31:19.188Z,57.00
2018-04-29T23:33:47.857Z,57.30
2018-04-29T23:36:17.635Z,57.20
2018-04-29T23:38:47.376Z,57.20
2018-04-29T23:41:16.198Z,57.40
2018-04-29T23:43:45.888Z,58.00
2018-04-29T23:46:14.975Z,58.10
2018-04-29T23:48:44.100Z,57.90
2018-04-29T23:51:13.212Z,57.90
2018-04-29T23:53:41.720Z,58.30
2018-04-29T23:56:10.749Z,58.30
2018-04-29T23:58:41.255Z,58.40
